Terminal Aerodrome Forecast
Issued by NWS Charleston, WV

Home | Current Version | Previous Version | Text Only | Print | Product List | Glossary On
Versions: 1 2 3 4 5 6 7 8 9 10 11 12 13 14 15 16 17 18 19 20 21 22 23 24 25 26
000
FTUS41 KRLX 222300
TAFBKW
TAF
KBKW 222322Z 2300/2324 33005KT P6SM FEW030
      TEMPO 2300/2301 BKN030
     FM230700 04003KT 4SM BR SCT001
      TEMPO 2308/2309 1/2SM FG BKN001
     FM231400 04004KT P6SM SKC
     FM232000 02004KT P6SM FEW040=

USA.gov is the U.S. government's official web portal to all federal, state and local government web resources and services.